createdAt,value
2023-02-27T00:02:05.862Z,60.07
2023-02-27T00:04:32.636Z,59.80
2023-02-27T00:06:59.635Z,59.97
2023-02-27T00:09:26.645Z,59.95
2023-02-27T00:11:53.344Z,60.06
2023-02-27T00:14:19.992Z,60.24
2023-02-27T00:16:47.960Z,59.70
2023-02-27T00:19:14.536Z,59.41
2023-02-27T00:21:41.977Z,60.00
2023-02-27T00:24:08.572Z,60.71
2023-02-27T00:26:35.397Z,60.05
2023-02-27T00:29:02.306Z,59.50
2023-02-27T00:31:29.291Z,60.55
2023-02-27T00:33:57.553Z,59.94
2023-02-27T00:36:24.146Z,60.67
2023-02-27T00:38:50.663Z,59.80
2023-02-27T00:41:17.613Z,60.34
2023-02-27T00:43:44.162Z,60.22
2023-02-27T00:46:10.792Z,60.69
2023-02-27T00:48:37.519Z,61.09
2023-02-27T00:51:05.901Z,60.37
2023-02-27T00:53:32.501Z,61.63
2023-02-27T00:55:59.176Z,60.30
2023-02-27T00:58:25.954Z,60.17
2023-02-27T01:00:52.576Z,60.62
2023-02-27T01:03:19.183Z,61.05
2023-02-27T01:05:45.932Z,60.77
2023-02-27T01:08:13.856Z,60.77
2023-02-27T01:10:40.489Z,60.28
2023-02-27T01:13:07.251Z,60.27
2023-02-27T01:15:33.833Z,60.77
2023-02-27T01:18:00.428Z,60.49
2023-02-27T01:20:27.275Z,61.07
2023-02-27T01:22:53.895Z,61.22
2023-02-27T01:25:21.878Z,60.34
2023-02-27T01:27:48.509Z,60.97
2023-02-27T01:30:15.509Z,60.59
2023-02-27T01:32:42.556Z,60.58
2023-02-27T01:35:09.601Z,61.43
2023-02-27T01:37:36.278Z,61.25
2023-02-27T01:40:03.152Z,61.66
2023-02-27T01:42:31.200Z,61.14
2023-02-27T01:45:25.725Z,62.69
2023-02-27T01:47:56.149Z,62.37
2023-02-27T01:50:23.714Z,62.46
2023-02-27T01:52:54.598Z,62.63
2023-02-27T01:55:22.851Z,63.00
2023-02-27T01:57:51.899Z,62.99
2023-02-27T02:00:19.368Z,63.45
2023-02-27T02:02:52.632Z,63.06
2023-02-27T02:05:20.895Z,62.65
2023-02-27T02:07:49.046Z,63.00
2023-02-27T02:10:16.050Z,63.49
2023-02-27T02:12:43.637Z,62.46
2023-02-27T02:15:11.831Z,62.84
2023-02-27T02:17:45.883Z,63.50
2023-02-27T02:20:47.273Z,63.59
2023-02-27T02:23:46.373Z,62.47
2023-02-27T02:26:33.143Z,62.34
2023-02-27T02:29:39.532Z,62.53
2023-02-27T02:32:34.539Z,62.19
2023-02-27T02:35:40.576Z,62.86
2023-02-27T02:38:34.654Z,62.87
2023-02-27T02:41:10.380Z,62.81
2023-02-27T02:43:47.231Z,62.74
2023-02-27T02:46:18.893Z,62.73
2023-02-27T02:48:48.744Z,62.12
2023-02-27T02:51:20.066Z,62.64
2023-02-27T02:53:55.936Z,62.42
2023-02-27T02:56:28.186Z,62.59
2023-02-27T02:58:59.391Z,62.83
2023-02-27T03:01:32.380Z,63.34
2023-02-27T03:04:06.072Z,62.84
2023-02-27T03:06:36.002Z,63.29
2023-02-27T03:09:10.435Z,62.85
2023-02-27T03:11:41.202Z,63.46
2023-02-27T03:14:13.713Z,64.25
2023-02-27T03:16:43.061Z,63.98
2023-02-27T03:19:13.229Z,63.04
2023-02-27T03:21:46.108Z,63.66
2023-02-27T03:24:20.609Z,63.35
2023-02-27T03:26:50.157Z,63.92
2023-02-27T03:29:21.664Z,63.70
2023-02-27T03:31:54.051Z,64.22
2023-02-27T03:34:25.043Z,63.39
2023-02-27T03:37:00.882Z,63.98
2023-02-27T03:39:37.499Z,63.52
2023-02-27T03:42:12.427Z,64.20
2023-02-27T03:44:50.078Z,64.19
2023-02-27T03:47:18.545Z,64.58
2023-02-27T03:49:45.106Z,63.55
2023-02-27T03:52:11.990Z,63.50
2023-02-27T03:54:47.809Z,63.82
2023-02-27T03:57:14.368Z,63.51
2023-02-27T03:59:41.024Z,63.88
2023-02-27T04:02:08.341Z,63.22
2023-02-27T04:04:35.080Z,63.25
2023-02-27T04:07:06.596Z,63.02
2023-02-27T04:09:51.371Z,63.04
2023-02-27T04:12:35.216Z,63.47
2023-02-27T04:15:13.449Z,63.93
2023-02-27T04:17:49.638Z,63.13
2023-02-27T04:20:29.092Z,63.70
2023-02-27T04:23:01.344Z,63.98
2023-02-27T04:25:49.903Z,63.44
2023-02-27T04:28:22.087Z,63.79
2023-02-27T04:30:59.888Z,63.01
2023-02-27T04:33:35.273Z,62.44
2023-02-27T04:36:10.259Z,62.37
2023-02-27T04:38:42.423Z,63.31
2023-02-27T04:41:15.245Z,62.82
2023-02-27T04:43:44.774Z,63.33
2023-02-27T04:46:16.269Z,63.12
2023-02-27T04:48:51.072Z,63.46
2023-02-27T04:51:23.032Z,63.17
2023-02-27T04:53:54.705Z,64.53
2023-02-27T04:56:27.409Z,64.12
2023-02-27T04:58:56.920Z,64.58
2023-02-27T05:01:31.448Z,64.82
2023-02-27T05:04:00.504Z,64.41
2023-02-27T05:06:30.765Z,64.98
2023-02-27T05:09:04.234Z,63.51
2023-02-27T05:11:38.377Z,63.78
2023-02-27T05:14:13.624Z,65.08
2023-02-27T05:16:46.718Z,65.02
2023-02-27T05:19:13.834Z,64.90
2023-02-27T05:21:48.803Z,64.47
2023-02-27T05:24:24.119Z,64.81
2023-02-27T05:27:05.875Z,64.45
2023-02-27T05:29:37.989Z,64.58
2023-02-27T05:32:12.828Z,64.39
2023-02-27T05:34:44.726Z,64.89
2023-02-27T05:37:16.783Z,64.62
2023-02-27T05:39:46.109Z,64.85
2023-02-27T05:42:19.613Z,64.27
2023-02-27T05:44:54.749Z,65.26
2023-02-27T05:47:25.417Z,65.84
2023-02-27T05:49:55.448Z,65.06
2023-02-27T05:52:24.992Z,66.33
2023-02-27T05:54:56.739Z,66.46
2023-02-27T05:57:29.363Z,66.63
2023-02-27T06:00:02.326Z,65.48
2023-02-27T06:02:29.480Z,65.44
2023-02-27T06:04:56.444Z,65.55
2023-02-27T06:07:23.621Z,65.28
2023-02-27T06:09:50.655Z,65.33
2023-02-27T06:12:17.539Z,65.75
2023-02-27T06:14:45.529Z,66.15
2023-02-27T06:17:12.173Z,65.68
2023-02-27T06:20:10.586Z,65.67
2023-02-27T06:22:37.154Z,65.77
2023-02-27T06:25:04.402Z,65.87
2023-02-27T06:27:31.104Z,64.90
2023-02-27T06:29:59.009Z,65.36
2023-02-27T06:32:25.813Z,65.19
2023-02-27T06:34:52.663Z,64.85
2023-02-27T06:37:19.296Z,65.15
2023-02-27T06:39:45.822Z,65.00
2023-02-27T06:42:12.534Z,65.31
2023-02-27T06:44:39.143Z,65.17
2023-02-27T06:47:07.113Z,65.92
2023-02-27T06:49:33.815Z,65.45
2023-02-27T06:52:00.476Z,65.00
2023-02-27T06:54:27.045Z,64.82
2023-02-27T06:56:53.626Z,64.68
2023-02-27T06:59:20.209Z,64.39
2023-02-27T07:01:46.831Z,64.15
2023-02-27T07:04:15.618Z,64.54
2023-02-27T07:07:35.851Z,63.94
2023-02-27T07:09:28.982Z,63.93
2023-02-27T07:11:55.724Z,63.58
2023-02-27T07:14:22.372Z,62.75
2023-02-27T07:16:49.104Z,62.73
2023-02-27T07:19:17.693Z,62.98
2023-02-27T07:21:44.407Z,62.34
2023-02-27T07:24:11.127Z,61.68
2023-02-27T07:26:38.120Z,61.96
2023-02-27T07:29:05.636Z,61.20
2023-02-27T07:31:33.019Z,61.53
2023-02-27T07:33:59.879Z,61.11
2023-02-27T07:36:28.123Z,61.03
2023-02-27T07:38:54.840Z,59.66
2023-02-27T07:41:30.438Z,60.26
2023-02-27T07:43:58.513Z,60.14
2023-02-27T07:46:25.160Z,60.16
2023-02-27T07:48:51.807Z,60.00
2023-02-27T07:51:18.476Z,59.91
2023-02-27T07:53:46.539Z,59.44
2023-02-27T07:56:13.109Z,59.31
2023-02-27T07:58:39.692Z,58.87
2023-02-27T08:01:06.313Z,58.13
2023-02-27T08:03:32.888Z,58.35
2023-02-27T08:06:02.089Z,58.56
2023-02-27T08:08:29.148Z,58.25
2023-02-27T08:10:57.133Z,56.72
2023-02-27T08:13:42.498Z,55.83
2023-02-27T08:16:10.461Z,56.90
2023-02-27T08:18:37.186Z,56.42
2023-02-27T08:21:04.187Z,56.47
2023-02-27T08:23:30.942Z,54.72
2023-02-27T08:25:58.960Z,53.89
2023-02-27T08:28:25.835Z,53.28
2023-02-27T08:30:52.471Z,54.82
2023-02-27T08:33:19.251Z,55.41
2023-02-27T08:35:45.904Z,54.58
2023-02-27T08:38:12.516Z,55.46
2023-02-27T08:40:39.178Z,55.53
2023-02-27T08:43:07.349Z,55.36
2023-02-27T08:45:34.059Z,54.41
2023-02-27T08:48:00.716Z,54.68
2023-02-27T08:50:27.378Z,53.76
2023-02-27T08:52:53.974Z,53.42
2023-02-27T08:55:20.580Z,52.72
2023-02-27T08:57:47.176Z,52.91
2023-02-27T09:00:16.361Z,52.70
2023-02-27T09:02:43.135Z,52.08
2023-02-27T09:05:09.967Z,52.16
2023-02-27T09:07:36.630Z,51.54
2023-02-27T09:10:03.759Z,52.19
2023-02-27T09:12:30.317Z,52.40
2023-02-27T09:14:57.132Z,53.31
2023-02-27T09:17:25.481Z,53.06
2023-02-27T09:19:52.274Z,53.04
2023-02-27T09:22:19.210Z,52.73
2023-02-27T09:24:46.000Z,53.87
2023-02-27T09:27:12.613Z,53.56
2023-02-27T09:29:42.446Z,53.05
2023-02-27T09:32:09.844Z,54.07
2023-02-27T09:34:39.949Z,53.09
2023-02-27T09:37:06.671Z,53.17
2023-02-27T09:39:33.304Z,53.12
2023-02-27T09:42:17.677Z,52.95
2023-02-27T09:44:47.917Z,53.35
2023-02-27T09:47:21.872Z,53.80
2023-02-27T09:50:02.100Z,53.63
2023-02-27T09:52:32.246Z,53.74
2023-02-27T09:54:58.973Z,53.38
2023-02-27T09:57:41.550Z,53.35
2023-02-27T10:00:19.922Z,53.74
2023-02-27T10:02:57.347Z,52.68
2023-02-27T10:05:35.341Z,52.68
2023-02-27T10:08:10.736Z,52.57
2023-02-27T10:10:44.009Z,53.08
2023-02-27T10:13:39.297Z,52.98
2023-02-27T10:16:09.898Z,52.67
2023-02-27T10:18:47.911Z,53.16
2023-02-27T10:21:21.041Z,53.18
2023-02-27T10:23:55.173Z,53.46
2023-02-27T10:26:25.347Z,53.80
2023-02-27T10:28:52.441Z,52.82
2023-02-27T10:31:23.617Z,52.60
2023-02-27T10:33:51.824Z,53.17
2023-02-27T10:36:33.099Z,52.27
2023-02-27T10:39:05.281Z,51.47
2023-02-27T10:41:31.920Z,51.46
2023-02-27T10:44:00.101Z,51.02
2023-02-27T10:46:29.300Z,50.81
2023-02-27T10:48:59.408Z,51.13
2023-02-27T10:51:29.875Z,50.13
2023-02-27T10:54:15.934Z,49.94
2023-02-27T10:56:47.296Z,49.95
2023-02-27T10:59:19.302Z,50.31
2023-02-27T11:01:50.102Z,49.12
2023-02-27T11:04:27.039Z,49.37
2023-02-27T11:06:59.588Z,48.68
2023-02-27T11:09:28.016Z,48.47
2023-02-27T11:11:55.895Z,48.83
2023-02-27T11:14:31.463Z,49.22
2023-02-27T11:17:00.897Z,49.81
2023-02-27T11:19:33.652Z,49.21
2023-02-27T11:22:04.865Z,48.44
2023-02-27T11:24:32.035Z,48.05
2023-02-27T11:26:59.993Z,49.42
2023-02-27T11:29:27.215Z,48.97
2023-02-27T11:31:56.016Z,48.88
2023-02-27T11:34:27.155Z,47.79
2023-02-27T11:36:58.007Z,47.75
2023-02-27T11:39:30.455Z,49.04
2023-02-27T11:41:59.139Z,47.65
2023-02-27T11:44:49.610Z,47.89
2023-02-27T11:47:19.963Z,48.75
2023-02-27T11:50:14.510Z,48.10
2023-02-27T11:52:47.703Z,48.06
2023-02-27T11:55:18.550Z,47.99
2023-02-27T11:57:49.060Z,48.00
2023-02-27T12:00:19.466Z,47.93
2023-02-27T12:02:53.375Z,46.94
2023-02-27T12:05:25.815Z,47.42
2023-02-27T12:07:57.083Z,46.90
2023-02-27T12:10:28.678Z,46.04
2023-02-27T12:13:00.434Z,46.15
2023-02-27T12:15:34.096Z,46.32
2023-02-27T12:18:08.961Z,45.86
2023-02-27T12:20:40.528Z,47.13
2023-02-27T12:23:18.029Z,46.76
2023-02-27T12:25:50.317Z,46.53
2023-02-27T12:28:30.262Z,45.64
2023-02-27T12:31:08.557Z,46.06
2023-02-27T12:33:41.802Z,44.51
2023-02-27T12:36:12.380Z,43.68
2023-02-27T12:38:41.881Z,43.71
2023-02-27T12:41:42.354Z,43.96
2023-02-27T12:44:28.030Z,45.37
2023-02-27T12:47:05.782Z,45.12
2023-02-27T12:49:41.917Z,45.19
2023-02-27T12:52:19.396Z,45.03
2023-02-27T12:54:56.010Z,45.09
2023-02-27T12:57:32.190Z,44.96
2023-02-27T13:00:10.155Z,44.96
2023-02-27T13:03:08.206Z,43.70
2023-02-27T13:05:53.962Z,45.69
2023-02-27T13:08:43.989Z,44.25
2023-02-27T13:11:22.217Z,44.14
2023-02-27T13:13:54.781Z,44.79
2023-02-27T13:16:25.645Z,44.28
2023-02-27T13:18:56.970Z,44.45
2023-02-27T13:21:30.920Z,43.76
2023-02-27T13:24:12.224Z,44.63
2023-02-27T13:26:42.289Z,45.28
2023-02-27T13:29:15.167Z,44.40
2023-02-27T13:31:48.870Z,44.24
2023-02-27T13:34:23.104Z,43.23
2023-02-27T13:36:57.820Z,42.94
2023-02-27T13:39:52.861Z,43.37
2023-02-27T13:42:52.492Z,41.97
2023-02-27T13:45:53.010Z,42.62
2023-02-27T13:48:48.199Z,42.58
2023-02-27T13:51:55.694Z,43.60
2023-02-27T13:54:34.233Z,43.78
2023-02-27T13:57:20.946Z,43.95
2023-02-27T13:59:56.197Z,43.86
2023-02-27T14:02:46.572Z,44.53
2023-02-27T14:05:29.680Z,44.80
2023-02-27T14:08:03.402Z,45.86
2023-02-27T14:10:31.490Z,46.34
2023-02-27T14:12:58.535Z,46.74
2023-02-27T14:15:52.030Z,45.83
2023-02-27T14:18:57.139Z,45.39
2023-02-27T14:21:59.419Z,42.70
2023-02-27T14:24:33.692Z,42.98
2023-02-27T14:27:00.893Z,44.30
2023-02-27T14:29:31.086Z,44.90
2023-02-27T14:32:00.458Z,44.21
2023-02-27T14:34:29.387Z,44.51
2023-02-27T14:36:58.333Z,44.33
2023-02-27T14:39:27.711Z,43.67
2023-02-27T14:42:07.329Z,43.60
2023-02-27T14:44:39.112Z,43.27
2023-02-27T14:47:06.065Z,44.22
2023-02-27T14:49:35.650Z,43.06
2023-02-27T14:52:22.982Z,42.45
2023-02-27T14:54:51.141Z,42.96
2023-02-27T14:57:20.458Z,43.29
2023-02-27T14:59:49.393Z,43.86
2023-02-27T15:02:22.983Z,44.20
2023-02-27T15:04:55.434Z,44.79
2023-02-27T15:07:24.289Z,45.69
2023-02-27T15:09:53.787Z,45.82
2023-02-27T15:12:22.061Z,45.02
2023-02-27T15:14:51.948Z,45.91
2023-02-27T15:17:20.467Z,45.39
2023-02-27T15:19:49.357Z,46.00
2023-02-27T15:22:36.189Z,45.46
2023-02-27T15:25:05.168Z,45.81
2023-02-27T15:27:31.828Z,46.36
2023-02-27T15:30:00.427Z,45.12
2023-02-27T15:32:29.744Z,45.63
2023-02-27T15:34:57.284Z,44.42
2023-02-27T15:37:28.580Z,45.12
2023-02-27T15:39:56.397Z,45.96
2023-02-27T15:42:26.259Z,45.08
2023-02-27T15:44:54.227Z,45.13
2023-02-27T15:47:23.930Z,45.45
2023-02-27T15:49:55.458Z,44.87
2023-02-27T15:52:25.847Z,44.68
2023-02-27T15:54:59.261Z,44.66
2023-02-27T15:57:26.049Z,44.79
2023-02-27T15:59:55.099Z,43.93
2023-02-27T16:02:26.757Z,44.58
2023-02-27T16:04:53.578Z,45.25
2023-02-27T16:07:22.828Z,45.31
2023-02-27T16:09:54.394Z,44.76
2023-02-27T16:12:24.417Z,44.93
2023-02-27T16:14:52.479Z,45.77
2023-02-27T16:17:27.780Z,45.96
2023-02-27T16:19:55.375Z,45.63
2023-02-27T16:22:22.453Z,45.90
2023-02-27T16:24:51.473Z,46.36
2023-02-27T16:27:22.617Z,46.45
2023-02-27T16:29:49.914Z,45.55
2023-02-27T16:32:24.553Z,46.29
2023-02-27T16:34:55.670Z,46.23
2023-02-27T16:37:26.465Z,46.07
2023-02-27T16:39:54.472Z,46.57
2023-02-27T16:42:21.553Z,46.03
2023-02-27T16:44:48.507Z,47.59
2023-02-27T16:47:15.245Z,47.04
2023-02-27T16:49:45.687Z,46.65
2023-02-27T16:52:12.337Z,46.83
2023-02-27T16:54:38.961Z,46.66
2023-02-27T16:57:06.999Z,47.20
2023-02-27T16:59:35.439Z,46.90
2023-02-27T17:02:10.220Z,47.35
2023-02-27T17:04:37.022Z,47.33
2023-02-27T17:07:06.350Z,48.10
2023-02-27T17:09:45.184Z,47.72
2023-02-27T17:12:18.260Z,47.51
2023-02-27T17:14:46.680Z,47.55
2023-02-27T17:17:21.416Z,48.22
2023-02-27T17:20:17.657Z,48.48
2023-02-27T17:22:55.360Z,48.25
2023-02-27T17:28:19.980Z,47.39
2023-02-27T17:30:50.202Z,47.60
2023-02-27T17:33:31.235Z,47.87
2023-02-27T17:36:16.778Z,47.30
2023-02-27T17:38:57.322Z,47.64
2023-02-27T17:41:28.223Z,48.08
2023-02-27T17:43:57.774Z,47.69
2023-02-27T17:46:31.496Z,48.00
2023-02-27T17:49:33.451Z,47.31
2023-02-27T17:59:14.764Z,48.61
2023-02-27T18:01:48.652Z,48.06
2023-02-27T18:04:15.406Z,48.18
2023-02-27T18:06:42.133Z,48.04
2023-02-27T18:39:55.261Z,46.95
2023-02-27T18:42:37.687Z,46.73
2023-02-27T19:22:41.065Z,51.53
2023-02-27T19:25:09.469Z,51.18
2023-02-27T19:27:40.784Z,51.07
2023-02-27T19:30:08.831Z,50.65
2023-02-27T19:36:37.776Z,50.28
2023-02-27T19:39:04.636Z,50.21
2023-02-27T19:42:03.103Z,50.21
2023-02-27T19:44:32.139Z,50.93
2023-02-27T19:47:01.829Z,50.90
2023-02-27T19:49:49.343Z,50.49
2023-02-27T19:52:34.343Z,50.42
2023-02-27T19:55:19.545Z,51.02
2023-02-27T19:58:04.725Z,51.19
2023-02-27T20:04:15.177Z,51.22
2023-02-27T20:06:43.529Z,52.43
2023-02-27T20:09:23.844Z,52.58
2023-02-27T20:11:53.159Z,52.91
2023-02-27T20:14:21.471Z,52.86
2023-02-27T20:16:48.312Z,52.94
2023-02-27T20:19:17.190Z,53.29
2023-02-27T20:21:44.567Z,53.61
2023-02-27T20:24:13.257Z,53.23
2023-02-27T20:26:42.614Z,53.70
2023-02-27T20:29:12.540Z,53.83
2023-02-27T20:31:42.474Z,53.30
2023-02-27T20:34:09.725Z,54.50
2023-02-27T20:36:38.012Z,53.83
2023-02-27T20:39:08.112Z,54.74
2023-02-27T20:41:35.377Z,54.49
2023-02-27T20:44:02.898Z,54.74
2023-02-27T20:46:30.218Z,54.23
2023-02-27T20:49:00.458Z,54.31
2023-02-27T20:51:30.185Z,54.62
2023-02-27T20:53:59.387Z,53.49
2023-02-27T20:56:30.609Z,53.86
2023-02-27T20:58:57.635Z,54.21
2023-02-27T21:01:24.291Z,54.45
2023-02-27T21:03:51.005Z,54.75
2023-02-27T21:06:19.446Z,54.53
2023-02-27T21:08:47.750Z,54.02
2023-02-27T21:11:17.204Z,54.07
2023-02-27T21:13:44.078Z,54.32
2023-02-27T21:16:13.461Z,53.29
2023-02-27T21:18:40.668Z,53.73
2023-02-27T21:21:08.871Z,54.43
2023-02-27T21:23:37.532Z,53.82
2023-02-27T21:26:04.845Z,53.06
2023-02-27T21:28:31.381Z,53.83
2023-02-27T21:30:58.190Z,53.59
2023-02-27T21:33:24.798Z,53.14
2023-02-27T21:35:51.472Z,53.50
2023-02-27T21:38:18.171Z,53.65
2023-02-27T21:40:46.233Z,53.19
2023-02-27T21:43:12.817Z,53.16
2023-02-27T21:45:39.528Z,53.63
2023-02-27T21:48:06.457Z,53.55
2023-02-27T21:50:33.070Z,54.27
2023-02-27T21:52:59.611Z,54.88
2023-02-27T21:55:26.296Z,54.85
2023-02-27T21:57:54.213Z,55.02
2023-02-27T22:00:21.407Z,55.33
2023-02-27T22:02:48.054Z,55.50
2023-02-27T22:05:14.664Z,55.90
2023-02-27T22:07:41.237Z,55.73
2023-02-27T22:10:09.228Z,56.34
2023-02-27T22:12:35.860Z,56.51
2023-02-27T22:15:04.455Z,56.59
2023-02-27T22:17:31.049Z,57.15
2023-02-27T22:19:57.961Z,56.63
2023-02-27T22:22:24.570Z,57.57
2023-02-27T22:24:51.131Z,57.17
2023-02-27T22:27:17.891Z,57.41
2023-02-27T22:29:44.476Z,57.45
2023-02-27T22:32:12.476Z,57.48
2023-02-27T22:34:39.481Z,57.54
2023-02-27T22:37:06.017Z,57.36
2023-02-27T22:39:32.703Z,57.35
2023-02-27T22:41:59.395Z,57.34
2023-02-27T22:44:26.019Z,56.96
2023-02-27T22:46:52.648Z,56.68
2023-02-27T22:49:22.300Z,56.48
2023-02-27T22:51:51.198Z,56.50
2023-02-27T22:54:19.751Z,56.62
2023-02-27T22:56:48.556Z,56.38
2023-02-27T22:59:15.125Z,56.59
2023-02-27T23:01:41.731Z,56.54
2023-02-27T23:04:09.085Z,55.70
2023-02-27T23:06:38.743Z,56.42
2023-02-27T23:09:08.514Z,55.85
2023-02-27T23:11:35.253Z,56.23
2023-02-27T23:14:01.967Z,56.57
2023-02-27T23:16:28.817Z,56.11
2023-02-27T23:18:57.747Z,55.95
2023-02-27T23:21:27.819Z,56.48
2023-02-27T23:23:55.988Z,56.78
2023-02-27T23:26:22.933Z,56.66
2023-02-27T23:28:49.667Z,57.16
2023-02-27T23:31:16.478Z,57.06
2023-02-27T23:33:43.155Z,57.66
2023-02-27T23:36:09.836Z,57.68
2023-02-27T23:38:36.604Z,57.35
2023-02-27T23:41:08.914Z,57.62
2023-02-27T23:43:36.248Z,57.25
2023-02-27T23:46:06.913Z,58.08
2023-02-27T23:48:34.465Z,58.75
2023-02-27T23:51:02.105Z,58.21
2023-02-27T23:53:28.835Z,57.67
2023-02-27T23:55:55.535Z,58.33
2023-02-27T23:58:24.012Z,57.61
